Time;durP1;ratioP1;P1;durP2;ratioP2;P2;SDS_P1;SDS_P2;PMS_P1;PMS_P2;Temp;Humidity;BMP_temperature;BMP_pressure;BME280_temperature;BME280_humidity;BME280_pressure;Samples;Min_cycle;Max_cycle;Signal;HPM_P1;HPM_P2
2021/12/06 00:01:07;;;;;;;41.60;23.60;;;1.80;99.90;;;;;;5050559;28;20603;-68
2021/12/06 00:03:44;;;;;;;43.53;23.95;;;1.80;99.90;;;;;;5056845;28;20132;-67
2021/12/06 00:06:11;;;;;;;41.95;23.00;;;1.80;99.90;;;;;;5057020;28;20052;-68
2021/12/06 00:08:37;;;;;;;45.10;23.73;;;1.70;99.90;;;;;;5051652;28;20041;-67
2021/12/06 00:11:07;;;;;;;46.92;24.23;;;1.80;99.90;;;;;;5051337;28;20144;-66
2021/12/06 00:13:38;;;;;;;45.88;23.75;;;1.70;99.90;;;;;;5050183;28;20431;-66
2021/12/06 00:16:09;;;;;;;46.63;23.90;;;1.80;99.90;;;;;;5063616;28;20127;-66
2021/12/06 00:18:35;;;;;;;42.83;24.58;;;1.70;99.90;;;;;;5070569;28;20095;-67
2021/12/06 00:21:03;;;;;;;47.42;23.75;;;1.80;99.90;;;;;;5060616;28;20047;-65
2021/12/06 00:23:28;;;;;;;47.40;24.85;;;1.80;99.90;;;;;;5059820;28;20091;-67
2021/12/06 00:25:55;;;;;;;44.60;24.48;;;1.70;99.90;;;;;;5058071;28;20041;-67
2021/12/06 00:28:21;;;;;;;51.08;25.35;;;1.80;99.90;;;;;;5061528;28;20116;-67
2021/12/06 00:30:47;;;;;;;43.78;24.45;;;1.70;99.90;;;;;;5053905;28;20115;-67
2021/12/06 00:33:12;;;;;;;43.72;24.33;;;1.80;99.90;;;;;;5060886;28;20040;-67
2021/12/06 00:35:38;;;;;;;43.35;24.38;;;1.80;99.90;;;;;;5066685;28;20124;-67
2021/12/06 00:38:04;;;;;;;41.33;22.98;;;1.80;99.90;;;;;;5054492;28;20113;-67
2021/12/06 00:40:34;;;;;;;45.17;24.30;;;1.80;99.90;;;;;;5068832;28;20043;-67
2021/12/06 00:43:00;;;;;;;44.63;24.40;;;1.80;99.90;;;;;;5070777;28;20147;-67
2021/12/06 00:45:26;;;;;;;41.97;24.15;;;1.80;99.90;;;;;;5077844;28;20064;-66
2021/12/06 00:47:52;;;;;;;44.05;23.10;;;1.80;99.90;;;;;;5054491;28;20095;-68
2021/12/06 00:50:19;;;;;;;48.10;26.40;;;1.80;99.90;;;;;;5058670;28;20505;-65
2021/12/06 00:52:46;;;;;;;46.33;25.75;;;1.80;99.90;;;;;;5053852;28;20223;-66
2021/12/06 00:55:14;;;;;;;47.83;24.60;;;1.90;99.90;;;;;;5070061;28;20119;-66
2021/12/06 00:57:40;;;;;;;50.97;24.50;;;1.80;99.90;;;;;;5060751;28;20514;-67
2021/12/06 01:00:16;;;;;;;45.70;25.55;;;1.80;99.90;;;;;;5054426;28;20086;-66
2021/12/06 01:02:42;;;;;;;46.05;25.58;;;1.80;99.90;;;;;;5071932;28;20051;-66
2021/12/06 01:05:09;;;;;;;45.92;25.73;;;1.80;99.90;;;;;;5069438;28;20390;-67
2021/12/06 01:07:34;;;;;;;40.03;23.73;;;1.80;99.90;;;;;;5060025;28;20191;-67
2021/12/06 01:10:00;;;;;;;44.75;24.67;;;1.80;99.90;;;;;;5065298;28;20145;-66
2021/12/06 01:12:26;;;;;;;44.72;24.30;;;1.90;99.90;;;;;;5065948;28;20041;-66
2021/12/06 01:14:52;;;;;;;44.47;23.35;;;1.80;99.90;;;;;;5064690;28;20052;-67
2021/12/06 01:17:17;;;;;;;46.25;25.23;;;1.80;99.90;;;;;;5048723;28;20041;-69
2021/12/06 01:19:43;;;;;;;43.90;25.27;;;1.80;99.90;;;;;;5063005;28;20057;-68
2021/12/06 01:22:20;;;;;;;43.67;24.08;;;1.80;99.90;;;;;;5056093;28;20041;-67
2021/12/06 01:24:54;;;;;;;47.97;25.33;;;1.80;99.90;;;;;;5059994;28;20052;-66
2021/12/06 01:30:35;;;;;;;45.75;24.75;;;1.80;99.90;;;;;;5058874;28;20054;-65
2021/12/06 01:33:27;;;;;;;47.58;24.60;;;1.80;99.90;;;;;;5054138;28;20048;-66
2021/12/06 01:41:19;;;;;;;47.28;25.92;;;1.80;99.90;;;;;;5060092;28;20053;-66
2021/12/06 01:44:12;;;;;;;49.13;25.73;;;1.80;99.90;;;;;;5057794;28;20064;-67
2021/12/06 01:46:45;;;;;;;47.53;24.48;;;1.80;99.90;;;;;;5061750;28;20080;-67
2021/12/06 01:49:13;;;;;;;52.38;27.70;;;1.80;99.90;;;;;;5066577;28;20085;-67
2021/12/06 01:51:39;;;;;;;45.90;25.02;;;1.80;99.90;;;;;;5061267;28;20041;-67
2021/12/06 01:54:06;;;;;;;49.80;25.80;;;1.80;99.90;;;;;;5057257;28;20463;-67
2021/12/06 01:56:32;;;;;;;49.15;25.83;;;1.80;99.90;;;;;;5062481;28;20048;-66
2021/12/06 01:58:58;;;;;;;44.75;23.63;;;1.80;99.90;;;;;;5055482;28;20035;-67
2021/12/06 02:01:24;;;;;;;45.70;24.60;;;1.80;99.90;;;;;;5076756;28;20455;-66
2021/12/06 02:03:50;;;;;;;49.13;25.92;;;1.80;99.90;;;;;;5067216;28;20539;-67
2021/12/06 02:06:16;;;;;;;54.22;26.50;;;1.80;99.90;;;;;;5061714;28;20072;-67
2021/12/06 02:08:41;;;;;;;49.67;25.25;;;1.80;99.90;;;;;;5071412;28;20087;-66
2021/12/06 02:11:08;;;;;;;47.35;25.02;;;1.80;99.90;;;;;;5069891;28;20041;-66
2021/12/06 02:13:49;;;;;;;53.08;25.15;;;1.80;99.90;;;;;;5062385;28;20045;-67
2021/12/06 02:16:18;;;;;;;59.53;28.13;;;1.70;99.90;;;;;;5064196;28;20127;-67
2021/12/06 02:18:49;;;;;;;53.38;25.77;;;1.80;99.90;;;;;;5064102;28;20129;-68
2021/12/06 02:21:18;;;;;;;51.15;25.98;;;1.70;99.90;;;;;;5058211;28;20510;-66
2021/12/06 02:23:46;;;;;;;58.15;28.65;;;1.70;99.90;;;;;;5056501;28;20040;-67
2021/12/06 02:26:13;;;;;;;59.58;27.92;;;1.70;99.90;;;;;;5056927;28;20557;-66
2021/12/06 02:28:39;;;;;;;58.65;29.20;;;1.70;99.90;;;;;;5060535;28;20079;-66
2021/12/06 02:31:05;;;;;;;63.95;29.38;;;1.70;99.90;;;;;;5068248;28;20082;-67
2021/12/06 02:33:31;;;;;;;59.97;27.17;;;1.70;99.90;;;;;;5057750;28;20411;-67
2021/12/06 02:35:57;;;;;;;59.72;27.45;;;1.70;99.90;;;;;;5066522;28;20044;-67
2021/12/06 02:38:23;;;;;;;62.97;28.52;;;1.70;99.90;;;;;;5063864;28;20037;-66
2021/12/06 02:40:48;;;;;;;63.95;28.83;;;1.70;99.90;;;;;;5063634;28;20102;-66
2021/12/06 02:43:15;;;;;;;63.70;28.58;;;1.70;99.90;;;;;;5062859;28;20106;-66
2021/12/06 02:45:42;;;;;;;65.03;28.55;;;1.70;99.90;;;;;;5058136;28;20041;-66
2021/12/06 02:48:09;;;;;;;62.80;28.88;;;1.70;99.90;;;;;;5064200;28;20384;-67
2021/12/06 02:50:41;;;;;;;67.68;30.23;;;1.70;99.90;;;;;;5044549;28;20052;-66
2021/12/06 02:53:06;;;;;;;63.45;28.02;;;1.70;99.90;;;;;;5054433;28;20128;-67
2021/12/06 02:55:36;;;;;;;71.30;29.98;;;1.70;99.90;;;;;;5065903;28;20040;-66
2021/12/06 02:58:45;;;;;;;63.10;28.58;;;1.70;99.90;;;;;;5058812;28;20041;-66
2021/12/06 03:01:04;;;;;;;66.85;29.88;;;1.70;99.90;;;;;;5052041;28;20049;-67
2021/12/06 03:03:29;;;;;;;64.32;28.65;;;1.70;99.90;;;;;;5064209;28;20081;-66
2021/12/06 03:05:55;;;;;;;68.25;30.02;;;1.70;99.90;;;;;;5057520;28;20075;-67
2021/12/06 03:08:53;;;;;;;64.25;30.25;;;1.70;99.90;;;;;;5054564;28;20063;-67
2021/12/06 03:11:26;;;;;;;61.60;26.52;;;1.70;99.90;;;;;;5063235;28;20173;-65
2021/12/06 03:13:52;;;;;;;63.35;27.48;;;1.70;99.90;;;;;;5053608;28;20044;-67
2021/12/06 03:16:19;;;;;;;65.32;29.55;;;1.70;99.90;;;;;;5061502;28;20053;-67
2021/12/06 03:18:46;;;;;;;73.35;30.73;;;1.70;99.90;;;;;;5061927;28;20061;-67
2021/12/06 03:21:13;;;;;;;63.70;28.23;;;1.70;99.90;;;;;;5063168;28;20112;-66
2021/12/06 03:23:39;;;;;;;66.82;29.70;;;1.70;99.90;;;;;;5056324;28;20132;-67
2021/12/06 03:26:06;;;;;;;71.80;30.60;;;1.70;99.90;;;;;;5056928;28;20036;-67
2021/12/06 03:28:39;;;;;;;68.85;29.08;;;1.70;99.90;;;;;;5066755;28;20286;-66
2021/12/06 03:31:06;;;;;;;71.07;31.35;;;1.70;99.90;;;;;;5055174;28;20460;-66
2021/12/06 03:33:35;;;;;;;71.22;30.30;;;1.70;99.90;;;;;;5062455;28;20085;-66
2021/12/06 03:36:02;;;;;;;69.38;32.53;;;1.70;99.90;;;;;;5058942;28;20051;-66
2021/12/06 03:38:28;;;;;;;63.03;28.95;;;1.80;99.90;;;;;;5053063;28;20033;-67
2021/12/06 03:40:54;;;;;;;63.55;29.08;;;1.80;99.90;;;;;;5063664;28;20028;-65
2021/12/06 03:43:19;;;;;;;67.20;28.65;;;1.80;99.90;;;;;;5069188;28;20043;-66
2021/12/06 03:45:45;;;;;;;63.50;29.80;;;1.80;99.90;;;;;;5058595;28;20050;-66
2021/12/06 03:48:11;;;;;;;67.68;29.63;;;1.80;99.90;;;;;;5054689;28;20040;-66
2021/12/06 03:50:36;;;;;;;72.57;31.67;;;1.80;99.90;;;;;;5058982;28;20087;-67
2021/12/06 03:53:02;;;;;;;69.43;30.77;;;1.80;99.90;;;;;;5066404;28;20120;-68
2021/12/06 03:55:28;;;;;;;64.63;28.88;;;1.80;99.90;;;;;;5056259;28;20044;-67
2021/12/06 03:57:53;;;;;;;66.45;28.60;;;1.80;99.90;;;;;;5050477;28;20498;-67
2021/12/06 04:00:19;;;;;;;65.38;29.63;;;1.90;99.90;;;;;;5054899;28;20099;-67
2021/12/06 04:02:45;;;;;;;71.25;30.73;;;1.80;99.90;;;;;;5056560;28;20033;-65
2021/12/06 04:05:11;;;;;;;68.47;29.13;;;1.80;99.90;;;;;;5062939;28;20121;-66
2021/12/06 04:07:36;;;;;;;65.35;29.63;;;1.80;99.90;;;;;;5059055;28;20146;-67
2021/12/06 04:10:08;;;;;;;68.53;31.73;;;1.80;99.90;;;;;;5061052;28;20055;-66
2021/12/06 04:12:34;;;;;;;69.60;28.55;;;1.90;99.90;;;;;;5038864;28;20056;-66
2021/12/06 04:14:59;;;;;;;64.05;29.17;;;1.90;99.90;;;;;;5060473;28;20049;-66
2021/12/06 04:17:25;;;;;;;66.50;28.67;;;1.90;99.90;;;;;;5054056;28;20144;-67
2021/12/06 04:19:51;;;;;;;66.97;28.67;;;1.90;99.90;;;;;;5055865;28;20333;-68
2021/12/06 04:22:17;;;;;;;64.78;29.23;;;1.90;99.90;;;;;;5056362;28;20119;-66
2021/12/06 04:24:44;;;;;;;63.88;28.90;;;1.90;99.90;;;;;;5052329;28;20051;-67
2021/12/06 04:27:14;;;;;;;66.65;30.08;;;1.90;99.90;;;;;;5054022;28;20052;-66
2021/12/06 04:29:42;;;;;;;67.80;29.27;;;1.90;99.90;;;;;;5061750;28;20044;-66
2021/12/06 04:32:09;;;;;;;71.07;29.42;;;1.90;99.90;;;;;;5060737;28;20110;-66
2021/12/06 04:34:35;;;;;;;72.53;31.90;;;1.90;99.90;;;;;;5068706;28;20145;-66
2021/12/06 04:37:01;;;;;;;70.57;30.15;;;1.90;99.90;;;;;;5054488;28;20139;-67
2021/12/06 04:39:28;;;;;;;72.20;30.63;;;1.90;99.90;;;;;;5063477;28;20036;-67
2021/12/06 04:41:53;;;;;;;71.78;29.88;;;1.90;99.90;;;;;;5058541;28;20056;-67
2021/12/06 04:44:19;;;;;;;66.20;30.33;;;1.90;99.90;;;;;;5056096;28;20037;-66
2021/12/06 04:46:46;;;;;;;67.55;28.35;;;1.90;99.90;;;;;;5061326;28;20379;-66
2021/12/06 04:49:12;;;;;;;60.30;27.55;;;2.00;99.90;;;;;;5065027;28;20056;-67
2021/12/06 04:51:41;;;;;;;68.78;30.10;;;1.90;99.90;;;;;;5056554;28;20048;-66
2021/12/06 04:54:08;;;;;;;71.25;29.17;;;1.90;99.90;;;;;;5068791;28;20044;-66
2021/12/06 04:56:39;;;;;;;65.60;27.75;;;2.10;99.90;;;;;;5056500;28;20037;-66
2021/12/06 04:59:16;;;;;;;71.75;30.15;;;2.00;99.90;;;;;;5063833;28;20086;-67
2021/12/06 05:01:46;;;;;;;64.20;27.95;;;2.00;99.90;;;;;;5060196;28;20105;-66
2021/12/06 05:04:18;;;;;;;67.65;28.00;;;2.00;99.90;;;;;;5059275;28;20409;-66
2021/12/06 05:06:46;;;;;;;69.93;28.55;;;2.00;99.90;;;;;;5074619;28;20047;-66
2021/12/06 05:09:17;;;;;;;65.32;28.15;;;2.00;99.90;;;;;;5062685;28;20048;-68
2021/12/06 05:11:44;;;;;;;69.93;28.55;;;2.00;99.90;;;;;;5058958;28;20475;-66
2021/12/06 05:14:10;;;;;;;67.57;28.55;;;2.00;99.90;;;;;;5067359;28;20047;-66
2021/12/06 05:16:36;;;;;;;72.65;28.63;;;2.00;99.90;;;;;;5059344;28;20064;-67
2021/12/06 05:19:04;;;;;;;62.78;28.05;;;2.00;99.90;;;;;;5053245;28;20124;-67
2021/12/06 05:21:32;;;;;;;67.70;28.88;;;2.00;99.90;;;;;;5060501;28;21320;-67
2021/12/06 05:23:58;;;;;;;67.55;27.50;;;2.00;99.90;;;;;;5057007;28;20055;-67
2021/12/06 05:26:24;;;;;;;70.93;29.00;;;2.00;99.90;;;;;;5061165;28;20045;-66
2021/12/06 05:28:54;;;;;;;71.05;29.30;;;2.00;99.90;;;;;;5061310;28;20036;-67
2021/12/06 05:31:21;;;;;;;71.80;29.40;;;2.00;99.90;;;;;;5059148;28;20040;-66
2021/12/06 05:33:53;;;;;;;72.95;29.70;;;2.00;99.90;;;;;;5063191;28;20156;-67
2021/12/06 05:36:19;;;;;;;68.68;26.58;;;2.00;99.90;;;;;;5058550;28;20120;-66
2021/12/06 05:38:44;;;;;;;67.47;27.25;;;2.00;99.90;;;;;;5060836;28;20147;-67
2021/12/06 05:41:10;;;;;;;70.00;29.17;;;2.00;99.90;;;;;;5063832;28;20032;-66
2021/12/06 05:43:37;;;;;;;75.90;29.13;;;2.00;99.90;;;;;;5064041;28;20060;-67
2021/12/06 05:46:03;;;;;;;72.88;29.92;;;2.00;99.90;;;;;;5053121;28;20048;-67
2021/12/06 05:48:29;;;;;;;74.97;29.20;;;2.00;99.90;;;;;;5062166;28;20044;-67
2021/12/06 05:50:54;;;;;;;70.00;29.98;;;2.00;99.90;;;;;;5057915;28;20041;-67
2021/12/06 05:53:21;;;;;;;81.03;29.67;;;2.00;99.90;;;;;;5055403;28;20107;-65
2021/12/06 05:55:47;;;;;;;76.97;29.70;;;2.00;99.90;;;;;;5058268;28;20056;-67
2021/12/06 05:58:15;;;;;;;74.30;29.33;;;2.00;99.90;;;;;;5055117;28;20057;-66
2021/12/06 06:00:42;;;;;;;70.80;28.97;;;2.00;99.90;;;;;;5056780;28;20040;-66
2021/12/06 06:03:09;;;;;;;72.40;28.08;;;2.00;99.90;;;;;;5056742;28;20570;-66
2021/12/06 06:05:35;;;;;;;72.55;29.85;;;2.00;99.90;;;;;;5070256;28;20121;-66
2021/12/06 06:08:01;;;;;;;69.35;29.40;;;2.00;99.90;;;;;;5056587;28;20356;-67
2021/12/06 06:10:30;;;;;;;70.97;29.23;;;2.00;99.90;;;;;;5066129;28;20041;-66
2021/12/06 06:12:56;;;;;;;77.70;29.45;;;2.00;99.90;;;;;;5060109;28;20060;-67
2021/12/06 06:15:22;;;;;;;73.97;29.67;;;2.00;99.90;;;;;;5062837;28;20037;-67
2021/12/06 06:17:47;;;;;;;77.90;31.33;;;2.00;99.90;;;;;;5057547;28;20051;-66
2021/12/06 06:20:25;;;;;;;76.47;30.08;;;2.00;99.90;;;;;;5060023;28;20037;-66
2021/12/06 06:22:50;;;;;;;81.85;32.70;;;2.00;99.90;;;;;;5056126;28;20402;-66
2021/12/06 06:25:17;;;;;;;74.70;28.92;;;1.90;99.90;;;;;;5060280;28;20041;-67
2021/12/06 06:27:43;;;;;;;74.53;29.65;;;2.00;99.90;;;;;;5063341;28;20041;-66
2021/12/06 06:30:10;;;;;;;77.07;30.15;;;2.00;99.90;;;;;;5053231;28;20045;-67
2021/12/06 06:32:35;;;;;;;78.25;30.77;;;2.00;99.90;;;;;;5051798;28;20044;-67
2021/12/06 06:35:03;;;;;;;77.38;30.17;;;2.00;99.90;;;;;;5057402;28;20051;-67
2021/12/06 06:37:28;;;;;;;67.22;27.77;;;2.00;99.90;;;;;;5065143;28;20500;-66
2021/12/06 06:39:54;;;;;;;73.57;28.83;;;2.00;99.90;;;;;;5058542;28;20044;-67
2021/12/06 06:42:23;;;;;;;75.60;28.38;;;2.00;99.90;;;;;;5056168;28;20028;-67
2021/12/06 06:44:53;;;;;;;64.07;26.98;;;2.00;99.90;;;;;;5065652;28;20049;-68
2021/12/06 06:47:19;;;;;;;63.53;25.80;;;2.00;99.90;;;;;;5058279;28;20048;-66
2021/12/06 06:49:46;;;;;;;68.63;26.98;;;2.00;99.90;;;;;;5058258;28;20443;-66
2021/12/06 06:52:12;;;;;;;72.72;27.80;;;2.00;99.90;;;;;;5059637;28;20474;-67
2021/12/06 06:54:38;;;;;;;68.15;25.95;;;2.00;99.90;;;;;;5050923;28;20426;-66
2021/12/06 06:57:04;;;;;;;62.22;25.05;;;2.00;99.90;;;;;;5055545;28;20044;-66
2021/12/06 06:59:30;;;;;;;63.47;26.85;;;2.00;99.90;;;;;;5058226;28;20133;-67
2021/12/06 07:01:55;;;;;;;69.57;27.25;;;2.00;99.90;;;;;;5063275;28;20605;-65
2021/12/06 07:04:21;;;;;;;66.80;27.13;;;2.00;99.90;;;;;;5053463;28;21805;-66
2021/12/06 07:06:47;;;;;;;71.03;27.52;;;2.00;99.90;;;;;;5063301;28;20037;-66
2021/12/06 07:09:12;;;;;;;68.22;26.73;;;2.00;99.90;;;;;;5064681;28;20152;-66
2021/12/06 07:11:40;;;;;;;69.60;26.65;;;2.00;99.90;;;;;;5063401;28;20051;-67
2021/12/06 07:14:06;;;;;;;65.32;27.17;;;1.90;99.90;;;;;;5053753;28;20051;-66
2021/12/06 07:16:32;;;;;;;68.35;26.95;;;2.00;99.90;;;;;;5059682;28;20389;-66
2021/12/06 07:18:58;;;;;;;73.30;28.10;;;1.90;99.90;;;;;;5070182;28;20550;-66
2021/12/06 07:21:24;;;;;;;81.85;31.33;;;1.90;99.90;;;;;;5053207;28;20368;-66
2021/12/06 07:23:51;;;;;;;75.70;28.27;;;1.90;99.90;;;;;;5050418;28;20045;-66
2021/12/06 07:26:18;;;;;;;83.30;30.23;;;2.00;99.90;;;;;;5061549;28;20085;-66
2021/12/06 07:28:46;;;;;;;70.10;27.10;;;2.00;99.90;;;;;;5061109;28;20124;-66
2021/12/06 07:31:14;;;;;;;76.30;30.33;;;2.00;99.90;;;;;;5052853;28;20045;-67
2021/12/06 07:33:42;;;;;;;84.72;29.95;;;2.00;99.90;;;;;;5062802;28;20044;-66
2021/12/06 07:36:09;;;;;;;76.13;28.95;;;2.00;99.90;;;;;;5069799;28;20114;-66
2021/12/06 07:38:37;;;;;;;75.45;29.25;;;2.00;99.90;;;;;;5066995;28;20045;-66
2021/12/06 07:41:08;;;;;;;72.22;28.60;;;2.00;99.90;;;;;;5057486;28;20084;-66
2021/12/06 07:43:34;;;;;;;65.50;26.23;;;2.10;99.90;;;;;;5072118;28;20117;-65
2021/12/06 07:46:00;;;;;;;72.82;28.90;;;2.10;99.90;;;;;;5070946;28;20036;-66
2021/12/06 07:48:26;;;;;;;70.88;28.05;;;2.00;99.90;;;;;;5055072;28;20136;-66
2021/12/06 07:50:52;;;;;;;75.78;27.02;;;2.00;99.90;;;;;;5070233;28;20530;-66
2021/12/06 07:53:18;;;;;;;68.50;27.98;;;2.00;99.90;;;;;;5055875;28;20116;-65
2021/12/06 07:55:44;;;;;;;81.53;30.00;;;2.10;99.90;;;;;;5053213;28;20033;-66
2021/12/06 07:58:10;;;;;;;77.00;29.10;;;2.10;99.90;;;;;;5052925;28;20144;-66
2021/12/06 08:00:40;;;;;;;76.45;29.20;;;2.10;99.90;;;;;;5055864;28;20139;-65
2021/12/06 08:03:08;;;;;;;75.80;27.58;;;2.10;99.90;;;;;;5059625;28;20048;-66
2021/12/06 08:05:36;;;;;;;76.68;28.98;;;2.10;99.90;;;;;;5060725;28;20120;-66
2021/12/06 08:08:04;;;;;;;78.63;29.45;;;2.10;99.90;;;;;;5060109;28;20490;-66
2021/12/06 08:10:33;;;;;;;75.90;29.80;;;2.10;99.90;;;;;;5063350;28;20463;-67
2021/12/06 08:12:59;;;;;;;82.20;29.90;;;2.10;99.90;;;;;;5071114;28;20406;-66
2021/12/06 08:15:25;;;;;;;80.70;28.27;;;2.10;99.90;;;;;;5050846;28;20048;-67
2021/12/06 08:17:50;;;;;;;80.07;29.60;;;2.10;99.90;;;;;;5050987;28;20107;-66
2021/12/06 08:20:16;;;;;;;81.78;29.38;;;2.10;99.90;;;;;;5061768;28;20040;-65
2021/12/06 08:22:42;;;;;;;85.88;30.13;;;2.10;99.90;;;;;;5051843;28;20070;-66
2021/12/06 08:25:10;;;;;;;77.05;28.65;;;2.10;99.90;;;;;;5051737;28;20410;-67
2021/12/06 08:27:36;;;;;;;79.70;29.45;;;2.10;99.90;;;;;;5065265;28;20040;-66
2021/12/06 08:30:04;;;;;;;93.35;31.10;;;2.10;99.90;;;;;;5056001;28;20037;-68
2021/12/06 08:32:30;;;;;;;80.25;29.38;;;2.10;99.90;;;;;;5071008;28;20493;-67
2021/12/06 08:34:55;;;;;;;78.57;28.58;;;2.10;99.90;;;;;;5064146;28;20045;-67
2021/12/06 08:37:21;;;;;;;88.35;29.95;;;2.10;99.90;;;;;;5063384;28;20398;-68
2021/12/06 08:39:47;;;;;;;82.47;29.60;;;2.10;99.90;;;;;;5069560;28;20037;-69
2021/12/06 08:42:13;;;;;;;83.55;31.10;;;2.20;99.90;;;;;;5069404;28;20041;-67
2021/12/06 08:44:39;;;;;;;87.82;31.27;;;2.20;99.90;;;;;;5044090;28;20049;-68
2021/12/06 08:47:04;;;;;;;87.72;31.70;;;2.20;99.90;;;;;;5059950;28;20492;-68
2021/12/06 08:49:31;;;;;;;79.68;30.52;;;2.20;99.90;;;;;;5053855;28;20044;-66
2021/12/06 08:51:57;;;;;;;84.22;29.45;;;2.20;99.90;;;;;;5062795;28;20045;-68
2021/12/06 08:54:26;;;;;;;88.72;30.88;;;2.20;99.90;;;;;;5062832;28;20091;-67
2021/12/06 08:56:54;;;;;;;81.93;28.77;;;2.20;99.90;;;;;;5055936;28;20517;-67
2021/12/06 08:59:20;;;;;;;80.82;27.80;;;2.20;99.90;;;;;;5054394;28;20047;-68
2021/12/06 09:01:46;;;;;;;76.68;30.92;;;2.30;99.90;;;;;;5062582;28;20052;-67
2021/12/06 09:04:12;;;;;;;79.22;29.00;;;2.30;99.90;;;;;;5058474;28;20052;-67
2021/12/06 09:06:42;;;;;;;83.50;30.73;;;2.30;99.90;;;;;;5069587;28;20457;-67
2021/12/06 09:09:09;;;;;;;81.38;30.65;;;2.30;99.90;;;;;;5048775;28;20049;-68
2021/12/06 09:11:36;;;;;;;78.53;28.67;;;2.40;99.90;;;;;;5054382;28;20053;-67
2021/12/06 09:14:04;;;;;;;81.47;28.90;;;2.40;99.90;;;;;;5064060;28;20477;-67
2021/12/06 09:16:30;;;;;;;81.35;29.70;;;2.40;99.90;;;;;;5067221;28;20478;-67
2021/12/06 09:19:00;;;;;;;75.43;29.17;;;2.40;99.90;;;;;;5052685;28;20052;-66
2021/12/06 09:21:26;;;;;;;72.80;28.67;;;2.50;99.90;;;;;;5061170;28;20136;-67
2021/12/06 09:23:55;;;;;;;79.40;29.30;;;2.50;99.90;;;;;;5069408;28;20066;-67
2021/12/06 09:26:20;;;;;;;;;;;2.50;99.90;;;;;;5060153;28;20187;-67
2021/12/06 09:28:46;;;;;;;69.93;26.25;;;2.80;99.90;;;;;;5068073;28;20007;-66
2021/12/06 09:31:15;;;;;;;65.72;26.70;;;2.60;99.90;;;;;;5069294;28;20041;-68
2021/12/06 09:33:41;;;;;;;62.55;25.23;;;2.60;99.90;;;;;;5070973;28;20080;-66
2021/12/06 09:36:07;;;;;;;65.05;23.80;;;2.60;99.90;;;;;;5066810;28;20401;-66
2021/12/06 09:38:38;;;;;;;61.35;24.27;;;2.60;99.90;;;;;;5070628;28;20044;-68
2021/12/06 09:41:08;;;;;;;63.92;24.45;;;2.60;99.90;;;;;;5061959;28;20052;-66
2021/12/06 09:43:38;;;;;;;60.67;25.08;;;2.60;99.90;;;;;;5064175;28;20063;-68
2021/12/06 09:46:05;;;;;;;61.75;23.92;;;2.70;99.90;;;;;;5061677;28;20052;-67
2021/12/06 09:48:31;;;;;;;58.85;24.83;;;2.70;99.90;;;;;;5050131;28;20044;-67
2021/12/06 09:51:06;;;;;;;61.03;24.50;;;2.70;99.90;;;;;;5056148;28;20076;-68
2021/12/06 09:53:35;;;;;;;66.38;25.63;;;3.30;99.90;;;;;;5049875;28;20064;-67
2021/12/06 09:56:05;;;;;;;70.85;25.13;;;2.90;99.90;;;;;;5063250;28;20131;-67
2021/12/06 09:58:31;;;;;;;57.60;24.23;;;2.70;99.90;;;;;;5053732;28;20096;-67
2021/12/06 10:01:02;;;;;;;59.17;23.17;;;2.90;99.90;;;;;;5050003;28;20049;-67
2021/12/06 10:03:29;;;;;;;52.08;22.65;;;2.80;99.90;;;;;;5049953;28;20047;-68
2021/12/06 10:06:02;;;;;;;52.47;21.20;;;2.80;99.90;;;;;;5050072;28;20041;-68
2021/12/06 10:08:30;;;;;;;53.70;22.92;;;2.80;99.90;;;;;;5049870;28;20120;-68
2021/12/06 10:10:56;;;;;;;;;;;3.20;99.90;;;;;;5055588;28;20045;-68
2021/12/06 10:13:22;;;;;;;50.80;22.80;;;2.70;99.90;;;;;;5069084;28;20680;-67
2021/12/06 10:15:50;;;;;;;54.72;22.73;;;2.80;99.90;;;;;;5065213;28;20550;-66
2021/12/06 10:18:18;;;;;;;55.85;22.48;;;2.80;99.90;;;;;;5067763;28;20075;-67
2021/12/06 10:20:44;;;;;;;49.33;22.15;;;2.80;99.90;;;;;;5061460;28;20067;-66
2021/12/06 10:23:11;;;;;;;48.17;20.85;;;2.90;99.90;;;;;;5054478;28;20060;-66
2021/12/06 10:25:44;;;;;;;49.60;21.02;;;2.90;99.90;;;;;;5065328;28;20053;-67
2021/12/06 10:28:11;;;;;;;47.38;19.67;;;2.90;99.90;;;;;;5049656;28;20407;-68
2021/12/06 10:31:00;;;;;;;45.78;19.58;;;2.90;99.90;;;;;;5057597;28;20044;-67
2021/12/06 10:33:30;;;;;;;51.50;21.85;;;2.90;99.90;;;;;;5068644;28;20110;-65
2021/12/06 10:35:59;;;;;;;47.85;21.73;;;2.90;99.90;;;;;;5069651;28;20048;-66
2021/12/06 10:38:28;;;;;;;42.78;19.42;;;2.90;99.90;;;;;;5058814;28;20084;-66
2021/12/06 10:41:05;;;;;;;47.33;22.02;;;2.90;99.90;;;;;;5061862;28;20135;-67
2021/12/06 10:43:32;;;;;;;53.72;22.23;;;2.80;99.90;;;;;;5065885;28;20083;-68
2021/12/06 10:45:58;;;;;;;49.67;22.45;;;2.80;99.90;;;;;;5059953;28;20572;-66
2021/12/06 10:48:36;;;;;;;41.25;20.27;;;2.80;99.90;;;;;;5063862;28;20075;-66
2021/12/06 10:51:12;;;;;;;46.00;19.88;;;2.90;99.90;;;;;;5055865;28;20488;-67
2021/12/06 10:53:45;;;;;;;44.17;19.55;;;2.80;99.90;;;;;;5063214;28;20507;-66
2021/12/06 10:56:25;;;;;;;50.38;22.23;;;2.90;99.90;;;;;;5065270;28;20067;-66
2021/12/06 10:58:54;;;;;;;43.80;19.65;;;2.80;99.90;;;;;;5048392;28;20057;-66
2021/12/06 11:01:31;;;;;;;41.72;20.02;;;2.80;99.90;;;;;;5059692;28;20406;-67
2021/12/06 11:03:58;;;;;;;39.25;18.88;;;2.80;99.90;;;;;;5060474;28;20550;-68
2021/12/06 11:06:41;;;;;;;41.85;19.77;;;2.80;99.90;;;;;;5052206;28;20170;-67
2021/12/06 11:09:08;;;;;;;44.97;19.88;;;2.80;99.90;;;;;;5058493;28;20399;-68
2021/12/06 11:11:48;;;;;;;45.15;19.95;;;2.90;99.90;;;;;;5059289;28;20045;-67
2021/12/06 11:14:23;;;;;;;45.85;20.08;;;2.90;99.90;;;;;;5058579;28;20052;-67
2021/12/06 11:16:55;;;;;;;42.40;19.77;;;2.90;99.90;;;;;;5052230;28;20521;-66
2021/12/06 11:19:23;;;;;;;43.20;20.50;;;2.90;99.90;;;;;;5052345;28;20093;-67
2021/12/06 11:22:01;;;;;;;43.72;19.02;;;2.80;99.90;;;;;;5057221;28;20048;-65
2021/12/06 11:24:30;;;;;;;41.13;19.13;;;2.80;99.90;;;;;;5056071;28;20040;-67
2021/12/06 11:27:09;;;;;;;45.53;19.30;;;2.90;99.90;;;;;;5039792;28;20078;-68
2021/12/06 11:29:41;;;;;;;;;;;2.90;99.90;;;;;;5058809;28;20499;-68
2021/12/06 11:32:13;;;;;;;50.65;20.42;;;2.80;99.90;;;;;;5054471;28;19999;-67
2021/12/06 11:34:46;;;;;;;48.15;21.40;;;2.90;99.90;;;;;;5056969;28;20050;-67
2021/12/06 11:37:19;;;;;;;49.28;21.30;;;2.80;99.90;;;;;;5058084;28;20062;-68
2021/12/06 11:39:49;;;;;;;46.72;21.60;;;2.90;99.90;;;;;;5054707;28;20048;-68
2021/12/06 11:42:16;;;;;;;50.80;23.02;;;2.90;99.90;;;;;;5055564;28;20048;-68
2021/12/06 11:44:43;;;;;;;60.58;25.92;;;2.90;99.90;;;;;;5059196;28;20080;-67
2021/12/06 11:47:16;;;;;;;56.70;25.15;;;2.90;99.90;;;;;;5057245;28;20518;-68
2021/12/06 11:49:49;;;;;;;60.42;26.98;;;2.90;99.90;;;;;;5055368;28;20056;-67
2021/12/06 11:52:20;;;;;;;54.78;24.55;;;2.90;99.90;;;;;;5052462;28;20037;-67
2021/12/06 11:55:01;;;;;;;60.25;27.35;;;2.90;99.90;;;;;;5056418;28;20056;-67
2021/12/06 11:57:30;;;;;;;63.28;28.83;;;2.90;99.90;;;;;;5051121;28;20187;-69
2021/12/06 12:00:08;;;;;;;61.58;27.63;;;3.00;99.90;;;;;;5050841;28;20094;-67
2021/12/06 12:02:47;;;;;;;61.55;26.60;;;3.00;99.90;;;;;;5055541;28;20139;-67
2021/12/06 12:05:28;;;;;;;49.38;21.77;;;3.10;99.90;;;;;;5058678;28;20514;-67
2021/12/06 12:08:20;;;;;;;54.67;24.80;;;3.10;99.90;;;;;;5056344;28;20040;-66
2021/12/06 12:10:50;;;;;;;46.55;22.02;;;3.10;99.90;;;;;;5055709;28;20139;-67
2021/12/06 12:13:25;;;;;;;47.80;22.33;;;3.10;99.90;;;;;;5051808;28;20554;-68
2021/12/06 12:15:54;;;;;;;55.17;23.83;;;3.10;99.90;;;;;;5060940;28;20593;-68
2021/12/06 12:18:19;;;;;;;;;;;3.10;99.90;;;;;;5054946;28;20156;-68
2021/12/06 12:20:46;;;;;;;46.65;22.00;;;3.10;99.90;;;;;;5048937;28;19971;-68
2021/12/06 12:23:12;;;;;;;49.13;21.70;;;3.20;99.90;;;;;;5037729;28;20143;-68
2021/12/06 12:25:48;;;;;;;42.17;20.85;;;3.20;99.90;;;;;;5047728;28;20161;-68
2021/12/06 12:28:19;;;;;;;42.40;19.95;;;3.30;99.90;;;;;;5053672;28;20115;-67
2021/12/06 12:30:48;;;;;;;36.17;17.98;;;3.30;99.90;;;;;;5052420;28;20056;-67
2021/12/06 12:33:17;;;;;;;33.90;17.30;;;3.30;99.90;;;;;;5053629;28;20036;-68
2021/12/06 12:35:44;;;;;;;36.75;18.75;;;3.30;99.90;;;;;;5071932;28;20056;-68
2021/12/06 12:38:12;;;;;;;41.10;19.42;;;3.20;99.90;;;;;;5071790;28;20405;-68
2021/12/06 12:40:43;;;;;;;36.72;18.63;;;3.20;99.90;;;;;;5072642;28;20409;-68
2021/12/06 12:43:16;;;;;;;39.88;17.33;;;3.20;99.90;;;;;;5054207;28;20048;-67
2021/12/06 12:45:49;;;;;;;30.88;17.38;;;3.20;99.90;;;;;;5063955;28;20049;-67
2021/12/06 12:48:20;;;;;;;36.30;17.17;;;3.20;99.90;;;;;;5070917;28;20097;-66
2021/12/06 12:51:05;;;;;;;35.85;17.70;;;3.20;99.90;;;;;;5070642;28;20543;-66
2021/12/06 12:53:45;;;;;;;40.53;18.73;;;3.20;99.90;;;;;;5072099;28;20055;-67